sensor_id;sensor_type;location;lat;lon;timestamp;pressure;altitude;pressure_sealevel;temperature;humidity
11099;BME280;12223;42.650;23.364;2023-09-19T00:00:21;95111.59;;;19.69;80.25
11099;BME280;12223;42.650;23.364;2023-09-19T00:02:55;95105.69;;;19.92;78.10
11099;BME280;12223;42.650;23.364;2023-09-19T00:05:22;95119.63;;;19.94;77.64
11099;BME280;12223;42.650;23.364;2023-09-19T00:07:53;95117.78;;;19.90;78.20
11099;BME280;12223;42.650;23.364;2023-09-19T00:10:20;95118.56;;;19.90;79.17
11099;BME280;12223;42.650;23.364;2023-09-19T00:12:49;95124.47;;;19.97;79.00
11099;BME280;12223;42.650;23.364;2023-09-19T00:15:17;95112.41;;;19.90;79.49
11099;BME280;12223;42.650;23.364;2023-09-19T00:17:44;95111.06;;;19.87;79.90
11099;BME280;12223;42.650;23.364;2023-09-19T00:20:12;95117.50;;;20.01;79.25
11099;BME280;12223;42.650;23.364;2023-09-19T00:22:42;95109.72;;;19.75;80.71
11099;BME280;12223;42.650;23.364;2023-09-19T00:25:09;95111.88;;;19.88;80.72
11099;BME280;12223;42.650;23.364;2023-09-19T00:27:37;95105.97;;;20.01;80.03
11099;BME280;12223;42.650;23.364;2023-09-19T00:30:07;95104.09;;;19.81;81.07
11099;BME280;12223;42.650;23.364;2023-09-19T00:32:40;95112.41;;;19.70;82.88
11099;BME280;12223;42.650;23.364;2023-09-19T00:35:07;95109.69;;;19.49;86.07
11099;BME280;12223;42.650;23.364;2023-09-19T00:37:36;95100.28;;;19.42;86.35
11099;BME280;12223;42.650;23.364;2023-09-19T00:43:27;95103.75;;;19.27;89.35
11099;BME280;12223;42.650;23.364;2023-09-19T00:45:55;95097.78;;;19.00;91.00
11099;BME280;12223;42.650;23.364;2023-09-19T00:48:22;95083.53;;;18.69;94.29
11099;BME280;12223;42.650;23.364;2023-09-19T00:50:50;95086.38;;;18.52;97.36
11099;BME280;12223;42.650;23.364;2023-09-19T00:53:21;95092.22;;;18.49;98.84
11099;BME280;12223;42.650;23.364;2023-09-19T00:55:51;95088.69;;;18.33;100.00
11099;BME280;12223;42.650;23.364;2023-09-19T01:01:39;95094.31;;;18.37;100.00
11099;BME280;12223;42.650;23.364;2023-09-19T01:04:06;95089.28;;;18.03;100.00
11099;BME280;12223;42.650;23.364;2023-09-19T01:06:35;95087.50;;;18.14;100.00
11099;BME280;12223;42.650;23.364;2023-09-19T01:09:03;95091.75;;;18.15;100.00
11099;BME280;12223;42.650;23.364;2023-09-19T01:11:35;95091.44;;;18.01;100.00
11099;BME280;12223;42.650;23.364;2023-09-19T01:14:14;95099.59;;;17.85;100.00
11099;BME280;12223;42.650;23.364;2023-09-19T01:16:49;95097.13;;;17.78;100.00
11099;BME280;12223;42.650;23.364;2023-09-19T01:19:42;95091.97;;;18.03;100.00
11099;BME280;12223;42.650;23.364;2023-09-19T01:22:26;95093.56;;;17.99;100.00
11099;BME280;12223;42.650;23.364;2023-09-19T01:28:20;95087.22;;;18.58;100.00
11099;BME280;12223;42.650;23.364;2023-09-19T01:30:58;95097.72;;;18.79;100.00
11099;BME280;12223;42.650;23.364;2023-09-19T01:33:28;95100.94;;;18.76;100.00
11099;BME280;12223;42.650;23.364;2023-09-19T01:35:59;95096.88;;;18.64;100.00
11099;BME280;12223;42.650;23.364;2023-09-19T01:38:26;95096.69;;;18.85;100.00
11099;BME280;12223;42.650;23.364;2023-09-19T01:40:57;95090.47;;;18.65;100.00
11099;BME280;12223;42.650;23.364;2023-09-19T01:46:56;95077.72;;;18.40;100.00
11099;BME280;12223;42.650;23.364;2023-09-19T01:49:33;95085.94;;;18.75;100.00
11099;BME280;12223;42.650;23.364;2023-09-19T01:52:12;95076.38;;;19.00;99.25
11099;BME280;12223;42.650;23.364;2023-09-19T01:54:46;95081.25;;;19.18;96.89
11099;BME280;12223;42.650;23.364;2023-09-19T02:00:40;95086.69;;;19.63;91.69
11099;BME280;12223;42.650;23.364;2023-09-19T02:03:10;95093.91;;;19.78;89.33
11099;BME280;12223;42.650;23.364;2023-09-19T02:05:38;95107.06;;;19.85;88.37
11099;BME280;12223;42.650;23.364;2023-09-19T02:08:05;95108.66;;;19.91;86.36
11099;BME280;12223;42.650;23.364;2023-09-19T02:10:32;95104.63;;;19.93;85.97
11099;BME280;12223;42.650;23.364;2023-09-19T02:12:59;95094.69;;;19.94;85.12
11099;BME280;12223;42.650;23.364;2023-09-19T02:18:52;95099.53;;;19.97;82.08
11099;BME280;12223;42.650;23.364;2023-09-19T02:21:19;95103.53;;;20.04;81.84
11099;BME280;12223;42.650;23.364;2023-09-19T02:23:47;95104.88;;;19.92;82.53
11099;BME280;12223;42.650;23.364;2023-09-19T02:29:45;95100.06;;;20.04;81.61
11099;BME280;12223;42.650;23.364;2023-09-19T02:32:13;95093.34;;;20.17;80.76
11099;BME280;12223;42.650;23.364;2023-09-19T02:34:41;95086.88;;;20.18;80.35
11099;BME280;12223;42.650;23.364;2023-09-19T02:37:08;95086.38;;;20.11;81.24
11099;BME280;12223;42.650;23.364;2023-09-19T02:39:36;95080.22;;;20.10;80.98
11099;BME280;12223;42.650;23.364;2023-09-19T02:42:03;95078.06;;;19.92;82.93
11099;BME280;12223;42.650;23.364;2023-09-19T02:44:30;95074.59;;;19.96;83.38
11099;BME280;12223;42.650;23.364;2023-09-19T02:46:58;95061.72;;;20.03;82.54
11099;BME280;12223;42.650;23.364;2023-09-19T02:49:25;95064.94;;;20.00;81.77
11099;BME280;12223;42.650;23.364;2023-09-19T02:51:53;95063.31;;;20.10;80.36
11099;BME280;12223;42.650;23.364;2023-09-19T02:54:20;95063.03;;;20.06;80.13
11099;BME280;12223;42.650;23.364;2023-09-19T02:56:47;95059.03;;;20.08;79.24
11099;BME280;12223;42.650;23.364;2023-09-19T02:59:14;95061.16;;;20.12;78.63
11099;BME280;12223;42.650;23.364;2023-09-19T03:01:45;95056.66;;;19.97;78.58
11099;BME280;12223;42.650;23.364;2023-09-19T03:04:13;95052.31;;;20.06;78.05
11099;BME280;12223;42.650;23.364;2023-09-19T03:06:45;95050.19;;;20.03;78.46
11099;BME280;12223;42.650;23.364;2023-09-19T03:09:13;95044.56;;;19.99;78.97
11099;BME280;12223;42.650;23.364;2023-09-19T03:11:41;95044.03;;;20.02;80.05
11099;BME280;12223;42.650;23.364;2023-09-19T03:14:08;95034.44;;;19.71;84.44
11099;BME280;12223;42.650;23.364;2023-09-19T03:16:36;95047.56;;;19.52;84.34
11099;BME280;12223;42.650;23.364;2023-09-19T03:19:03;95051.81;;;19.33;88.88
11099;BME280;12223;42.650;23.364;2023-09-19T03:21:30;95046.94;;;18.90;92.29
11099;BME280;12223;42.650;23.364;2023-09-19T03:23:57;95040.53;;;19.01;94.42
11099;BME280;12223;42.650;23.364;2023-09-19T03:26:25;95042.13;;;19.07;94.53
11099;BME280;12223;42.650;23.364;2023-09-19T03:32:45;95046.44;;;19.18;89.96
11099;BME280;12223;42.650;23.364;2023-09-19T03:38:34;95042.16;;;19.32;87.23
11099;BME280;12223;42.650;23.364;2023-09-19T03:41:01;95048.59;;;19.31;84.51
11099;BME280;12223;42.650;23.364;2023-09-19T03:43:31;95051.00;;;19.33;83.84
11099;BME280;12223;42.650;23.364;2023-09-19T03:46:01;95055.00;;;19.35;82.78
11099;BME280;12223;42.650;23.364;2023-09-19T03:48:29;95060.09;;;19.37;81.91
11099;BME280;12223;42.650;23.364;2023-09-19T03:50:56;95056.09;;;19.39;81.54
11099;BME280;12223;42.650;23.364;2023-09-19T03:53:22;95059.06;;;19.48;81.28
11099;BME280;12223;42.650;23.364;2023-09-19T03:55:49;95059.91;;;19.53;81.50
11099;BME280;12223;42.650;23.364;2023-09-19T03:58:16;95071.94;;;19.56;81.20
11099;BME280;12223;42.650;23.364;2023-09-19T04:00:44;95066.31;;;19.52;80.91
11099;BME280;12223;42.650;23.364;2023-09-19T04:03:11;95067.94;;;19.53;80.08
11099;BME280;12223;42.650;23.364;2023-09-19T04:15:51;95080.50;;;19.48;77.74
11099;BME280;12223;42.650;23.364;2023-09-19T04:18:17;95085.88;;;19.53;77.48
11099;BME280;12223;42.650;23.364;2023-09-19T04:20:48;95082.66;;;19.61;76.66
11099;BME280;12223;42.650;23.364;2023-09-19T04:26:36;95070.06;;;19.66;75.27
11099;BME280;12223;42.650;23.364;2023-09-19T04:29:05;95086.69;;;19.79;74.62
11099;BME280;12223;42.650;23.364;2023-09-19T04:35:25;95083.94;;;20.19;74.23
11099;BME280;12223;42.650;23.364;2023-09-19T04:37:52;95077.66;;;20.69;71.22
11099;BME280;12223;42.650;23.364;2023-09-19T04:40:20;95072.44;;;21.42;67.17
11099;BME280;12223;42.650;23.364;2023-09-19T04:42:53;95064.09;;;22.12;64.12
11099;BME280;12223;42.650;23.364;2023-09-19T04:45:21;95075.19;;;22.81;60.89
11099;BME280;12223;42.650;23.364;2023-09-19T04:47:48;95071.81;;;23.32;57.12
11099;BME280;12223;42.650;23.364;2023-09-19T04:53:38;95068.59;;;23.30;54.64
11099;BME280;12223;42.650;23.364;2023-09-19T04:56:04;95067.22;;;23.14;56.06
11099;BME280;12223;42.650;23.364;2023-09-19T04:58:33;95061.84;;;23.14;57.40
11099;BME280;12223;42.650;23.364;2023-09-19T05:01:00;95061.16;;;23.59;57.03
11099;BME280;12223;42.650;23.364;2023-09-19T05:03:29;95063.00;;;24.42;53.93
11099;BME280;12223;42.650;23.364;2023-09-19T05:05:56;95056.16;;;25.27;51.20
11099;BME280;12223;42.650;23.364;2023-09-19T05:08:23;95045.00;;;26.09;48.39
11099;BME280;12223;42.650;23.364;2023-09-19T05:10:52;95044.84;;;26.76;46.04
11099;BME280;12223;42.650;23.364;2023-09-19T05:13:20;95052.25;;;27.01;44.83
11099;BME280;12223;42.650;23.364;2023-09-19T05:15:48;95055.06;;;27.53;43.24
11099;BME280;12223;42.650;23.364;2023-09-19T05:18:15;95054.41;;;27.99;42.59
11099;BME280;12223;42.650;23.364;2023-09-19T05:20:42;95064.19;;;28.47;41.20
11099;BME280;12223;42.650;23.364;2023-09-19T05:23:09;95060.91;;;28.79;40.29
11099;BME280;12223;42.650;23.364;2023-09-19T05:25:37;95063.44;;;29.13;39.24
11099;BME280;12223;42.650;23.364;2023-09-19T05:28:07;95049.19;;;29.79;38.11
11099;BME280;12223;42.650;23.364;2023-09-19T05:30:34;95043.31;;;29.56;37.74
11099;BME280;12223;42.650;23.364;2023-09-19T05:33:04;95041.88;;;30.82;36.31
11099;BME280;12223;42.650;23.364;2023-09-19T05:35:31;95041.78;;;30.66;35.76
11099;BME280;12223;42.650;23.364;2023-09-19T05:37:58;95043.47;;;30.95;35.17
11099;BME280;12223;42.650;23.364;2023-09-19T05:40:25;95053.34;;;30.63;35.24
11099;BME280;12223;42.650;23.364;2023-09-19T05:42:52;95045.25;;;29.35;37.32
11099;BME280;12223;42.650;23.364;2023-09-19T05:45:20;95042.22;;;28.22;39.39
11099;BME280;12223;42.650;23.364;2023-09-19T05:47:48;95042.63;;;27.69;40.49
11099;BME280;12223;42.650;23.364;2023-09-19T05:50:15;95042.25;;;28.05;40.58
11099;BME280;12223;42.650;23.364;2023-09-19T05:52:42;95043.94;;;28.44;39.89
11099;BME280;12223;42.650;23.364;2023-09-19T05:55:10;95041.66;;;28.93;38.56
11099;BME280;12223;42.650;23.364;2023-09-19T05:57:37;95035.81;;;28.27;39.85
11099;BME280;12223;42.650;23.364;2023-09-19T06:00:05;95040.03;;;27.90;40.31
11099;BME280;12223;42.650;23.364;2023-09-19T06:02:35;95036.47;;;28.24;39.93
11099;BME280;12223;42.650;23.364;2023-09-19T06:05:04;95037.63;;;28.61;39.64
11099;BME280;12223;42.650;23.364;2023-09-19T06:07:31;95029.81;;;29.80;37.66
11099;BME280;12223;42.650;23.364;2023-09-19T06:10:02;95034.41;;;30.66;35.49
11099;BME280;12223;42.650;23.364;2023-09-19T06:12:31;95030.78;;;29.43;36.96
11099;BME280;12223;42.650;23.364;2023-09-19T06:14:58;95025.88;;;28.77;38.24
11099;BME280;12223;42.650;23.364;2023-09-19T06:17:25;95031.09;;;27.12;40.87
11099;BME280;12223;42.650;23.364;2023-09-19T06:19:54;95033.00;;;26.55;42.67
11099;BME280;12223;42.650;23.364;2023-09-19T06:22:21;95028.41;;;26.72;43.28
11099;BME280;12223;42.650;23.364;2023-09-19T06:24:49;95030.00;;;27.30;42.07
11099;BME280;12223;42.650;23.364;2023-09-19T06:27:16;95036.06;;;27.87;41.36
11099;BME280;12223;42.650;23.364;2023-09-19T06:29:43;95016.78;;;27.54;41.24
11099;BME280;12223;42.650;23.364;2023-09-19T06:32:09;95022.53;;;26.88;42.56
11099;BME280;12223;42.650;23.364;2023-09-19T06:34:36;95030.13;;;26.60;43.58
11099;BME280;12223;42.650;23.364;2023-09-19T06:37:05;95017.09;;;26.00;44.83
11099;BME280;12223;42.650;23.364;2023-09-19T06:39:32;95016.16;;;25.38;46.42
11099;BME280;12223;42.650;23.364;2023-09-19T06:41:59;95020.47;;;25.03;47.69
11099;BME280;12223;42.650;23.364;2023-09-19T06:44:27;95024.41;;;24.69;49.14
11099;BME280;12223;42.650;23.364;2023-09-19T06:46:55;95026.06;;;24.79;49.02
11099;BME280;12223;42.650;23.364;2023-09-19T06:49:21;95033.00;;;24.44;50.84
11099;BME280;12223;42.650;23.364;2023-09-19T06:51:48;95031.44;;;24.11;51.62
11099;BME280;12223;42.650;23.364;2023-09-19T06:54:16;95036.81;;;23.97;53.04
11099;BME280;12223;42.650;23.364;2023-09-19T06:56:44;95030.50;;;23.88;53.16
11099;BME280;12223;42.650;23.364;2023-09-19T06:59:10;95028.66;;;24.02;53.13
11099;BME280;12223;42.650;23.364;2023-09-19T07:01:39;95042.63;;;24.04;53.33
11099;BME280;12223;42.650;23.364;2023-09-19T07:04:06;95031.19;;;24.26;53.99
11099;BME280;12223;42.650;23.364;2023-09-19T07:09:56;95028.78;;;24.79;51.44
11099;BME280;12223;42.650;23.364;2023-09-19T07:15:45;95036.81;;;24.57;51.70
11099;BME280;12223;42.650;23.364;2023-09-19T07:21:34;95042.69;;;24.86;50.69
11099;BME280;12223;42.650;23.364;2023-09-19T07:24:05;95039.69;;;24.88;51.11
11099;BME280;12223;42.650;23.364;2023-09-19T07:26:34;95037.38;;;25.08;50.39
11099;BME280;12223;42.650;23.364;2023-09-19T07:35:45;95029.19;;;25.00;50.10
11099;BME280;12223;42.650;23.364;2023-09-19T07:38:12;95035.09;;;25.02;50.31
11099;BME280;12223;42.650;23.364;2023-09-19T07:40:39;95036.78;;;24.84;50.89
11099;BME280;12223;42.650;23.364;2023-09-19T07:43:07;95034.28;;;25.01;50.15
11099;BME280;12223;42.650;23.364;2023-09-19T07:45:34;95035.28;;;25.41;49.28
11099;BME280;12223;42.650;23.364;2023-09-19T07:48:02;95038.41;;;25.35;48.80
11099;BME280;12223;42.650;23.364;2023-09-19T07:50:30;95037.22;;;25.27;49.21
11099;BME280;12223;42.650;23.364;2023-09-19T07:52:57;95036.13;;;25.28;49.16
11099;BME280;12223;42.650;23.364;2023-09-19T07:55:24;95030.41;;;25.30;48.79
11099;BME280;12223;42.650;23.364;2023-09-19T07:57:51;95039.69;;;25.73;47.85
11099;BME280;12223;42.650;23.364;2023-09-19T08:00:20;95032.88;;;26.07;47.36
11099;BME280;12223;42.650;23.364;2023-09-19T08:02:47;95039.63;;;26.18;46.75
11099;BME280;12223;42.650;23.364;2023-09-19T08:05:14;95033.88;;;26.41;46.02
11099;BME280;12223;42.650;23.364;2023-09-19T08:07:43;95039.59;;;26.79;45.28
11099;BME280;12223;42.650;23.364;2023-09-19T08:10:14;95032.50;;;27.09;45.00
11099;BME280;12223;42.650;23.364;2023-09-19T08:12:43;95037.97;;;27.44;43.63
11099;BME280;12223;42.650;23.364;2023-09-19T08:15:13;95034.91;;;27.28;43.71
11099;BME280;12223;42.650;23.364;2023-09-19T08:17:41;95022.69;;;26.82;44.14
11099;BME280;12223;42.650;23.364;2023-09-19T08:20:09;95012.97;;;26.81;44.42
11099;BME280;12223;42.650;23.364;2023-09-19T08:22:43;95016.09;;;27.06;44.51
11099;BME280;12223;42.650;23.364;2023-09-19T08:25:11;95015.00;;;27.41;43.50
11099;BME280;12223;42.650;23.364;2023-09-19T08:27:38;95011.31;;;27.72;43.07
11099;BME280;12223;42.650;23.364;2023-09-19T08:30:06;95007.09;;;28.17;41.79
11099;BME280;12223;42.650;23.364;2023-09-19T08:32:33;95006.44;;;28.20;41.56
11099;BME280;12223;42.650;23.364;2023-09-19T08:35:01;95011.78;;;27.22;42.57
11099;BME280;12223;42.650;23.364;2023-09-19T08:37:29;95011.28;;;27.03;44.04
11099;BME280;12223;42.650;23.364;2023-09-19T08:39:56;95017.91;;;26.88;44.40
11099;BME280;12223;42.650;23.364;2023-09-19T08:42:23;95017.38;;;27.17;43.33
11099;BME280;12223;42.650;23.364;2023-09-19T08:44:50;95013.72;;;27.30;43.09
11099;BME280;12223;42.650;23.364;2023-09-19T08:47:30;95019.00;;;27.61;42.71
11099;BME280;12223;42.650;23.364;2023-09-19T08:50:07;95015.28;;;28.00;42.07
11099;BME280;12223;42.650;23.364;2023-09-19T08:52:42;95005.53;;;27.90;41.81
11099;BME280;12223;42.650;23.364;2023-09-19T08:55:11;95001.72;;;27.83;41.55
11099;BME280;12223;42.650;23.364;2023-09-19T08:57:40;95003.19;;;27.54;42.00
11099;BME280;12223;42.650;23.364;2023-09-19T09:00:09;95009.56;;;27.58;41.74
11099;BME280;12223;42.650;23.364;2023-09-19T09:02:38;95007.94;;;27.32;42.68
11099;BME280;12223;42.650;23.364;2023-09-19T09:05:08;95000.47;;;27.37;42.42
11099;BME280;12223;42.650;23.364;2023-09-19T09:07:36;95000.16;;;27.65;41.99
11099;BME280;12223;42.650;23.364;2023-09-19T09:10:04;94999.31;;;27.98;41.32
11099;BME280;12223;42.650;23.364;2023-09-19T09:12:32;94988.47;;;27.38;41.87
11099;BME280;12223;42.650;23.364;2023-09-19T09:15:00;94995.03;;;27.03;43.08
11099;BME280;12223;42.650;23.364;2023-09-19T09:17:29;94992.63;;;27.10;42.98
11099;BME280;12223;42.650;23.364;2023-09-19T09:19:56;94994.34;;;26.80;43.36
11099;BME280;12223;42.650;23.364;2023-09-19T09:22:25;94988.03;;;26.54;44.03
11099;BME280;12223;42.650;23.364;2023-09-19T09:24:52;94982.91;;;26.43;44.38
11099;BME280;12223;42.650;23.364;2023-09-19T09:27:20;94958.75;;;26.81;43.98
11099;BME280;12223;42.650;23.364;2023-09-19T09:29:50;94976.38;;;27.10;43.50
11099;BME280;12223;42.650;23.364;2023-09-19T09:32:18;94962.47;;;27.46;42.35
11099;BME280;12223;42.650;23.364;2023-09-19T09:34:46;94978.88;;;27.92;41.52
11099;BME280;12223;42.650;23.364;2023-09-19T09:37:14;94977.00;;;27.50;41.92
11099;BME280;12223;42.650;23.364;2023-09-19T09:39:50;94976.38;;;27.53;42.24
11099;BME280;12223;42.650;23.364;2023-09-19T09:42:32;94960.25;;;27.22;42.85
11099;BME280;12223;42.650;23.364;2023-09-19T09:45:14;94963.31;;;27.38;42.57
11099;BME280;12223;42.650;23.364;2023-09-19T09:47:42;94970.78;;;27.67;42.06
11099;BME280;12223;42.650;23.364;2023-09-19T09:50:23;94961.69;;;27.45;42.39
11099;BME280;12223;42.650;23.364;2023-09-19T09:52:55;94955.28;;;27.76;42.05
11099;BME280;12223;42.650;23.364;2023-09-19T09:55:28;94951.28;;;28.28;40.87
11099;BME280;12223;42.650;23.364;2023-09-19T09:58:16;94944.81;;;28.71;40.08
11099;BME280;12223;42.650;23.364;2023-09-19T10:00:52;94945.44;;;28.18;41.09
11099;BME280;12223;42.650;23.364;2023-09-19T10:03:31;94945.56;;;27.57;42.75
11099;BME280;12223;42.650;23.364;2023-09-19T10:06:00;94939.16;;;27.79;41.56
11099;BME280;12223;42.650;23.364;2023-09-19T10:08:27;94939.09;;;27.96;41.77
11099;BME280;12223;42.650;23.364;2023-09-19T10:10:57;94945.59;;;28.13;41.33
11099;BME280;12223;42.650;23.364;2023-09-19T10:13:32;94943.81;;;28.55;40.71
11099;BME280;12223;42.650;23.364;2023-09-19T10:16:06;94938.59;;;28.41;41.40
11099;BME280;12223;42.650;23.364;2023-09-19T10:18:37;94937.94;;;28.15;42.00
11099;BME280;12223;42.650;23.364;2023-09-19T10:21:05;94941.13;;;28.46;41.56
11099;BME280;12223;42.650;23.364;2023-09-19T10:23:34;94934.81;;;28.63;40.93
11099;BME280;12223;42.650;23.364;2023-09-19T10:26:05;94942.69;;;28.85;40.63
11099;BME280;12223;42.650;23.364;2023-09-19T10:28:35;94936.38;;;28.43;40.50
11099;BME280;12223;42.650;23.364;2023-09-19T10:31:04;94930.31;;;28.67;40.10
11099;BME280;12223;42.650;23.364;2023-09-19T10:33:36;94932.34;;;28.11;40.73
11099;BME280;12223;42.650;23.364;2023-09-19T10:36:05;94921.19;;;27.95;41.17
11099;BME280;12223;42.650;23.364;2023-09-19T10:41:57;94927.53;;;27.62;42.14
11099;BME280;12223;42.650;23.364;2023-09-19T10:44:32;94920.19;;;28.17;41.31
11099;BME280;12223;42.650;23.364;2023-09-19T10:46:59;94919.69;;;28.53;40.79
11099;BME280;12223;42.650;23.364;2023-09-19T10:49:26;94913.78;;;29.01;39.77
11099;BME280;12223;42.650;23.364;2023-09-19T10:51:57;94903.09;;;29.17;39.08
11099;BME280;12223;42.650;23.364;2023-09-19T10:54:28;94911.41;;;29.53;38.19
11099;BME280;12223;42.650;23.364;2023-09-19T10:57:01;94909.22;;;29.80;37.70
11099;BME280;12223;42.650;23.364;2023-09-19T10:59:30;94905.56;;;30.09;37.10
11099;BME280;12223;42.650;23.364;2023-09-19T11:02:16;94900.91;;;29.97;37.94
11099;BME280;12223;42.650;23.364;2023-09-19T11:04:44;94906.81;;;29.66;37.49
11099;BME280;12223;42.650;23.364;2023-09-19T11:07:14;94901.91;;;29.92;37.31
11099;BME280;12223;42.650;23.364;2023-09-19T11:09:46;94900.31;;;29.91;37.44
11099;BME280;12223;42.650;23.364;2023-09-19T11:12:49;94902.16;;;30.36;36.78
11099;BME280;12223;42.650;23.364;2023-09-19T11:18:53;94898.13;;;30.94;35.63
11099;BME280;12223;42.650;23.364;2023-09-19T11:21:40;94889.28;;;31.25;35.02
11099;BME280;12223;42.650;23.364;2023-09-19T11:24:29;94892.13;;;31.29;35.11
11099;BME280;12223;42.650;23.364;2023-09-19T11:27:26;94890.84;;;30.98;35.46
11099;BME280;12223;42.650;23.364;2023-09-19T11:30:27;94880.81;;;30.62;36.12
11099;BME280;12223;42.650;23.364;2023-09-19T11:33:18;94888.09;;;30.34;36.22
11099;BME280;12223;42.650;23.364;2023-09-19T11:36:02;94874.47;;;30.58;36.06
11099;BME280;12223;42.650;23.364;2023-09-19T11:38:57;94870.88;;;30.82;35.78
11099;BME280;12223;42.650;23.364;2023-09-19T11:41:40;94857.19;;;31.06;35.04
11099;BME280;12223;42.650;23.364;2023-09-19T11:44:35;94862.53;;;31.03;35.04
11099;BME280;12223;42.650;23.364;2023-09-19T11:47:04;94855.00;;;30.72;35.74
11099;BME280;12223;42.650;23.364;2023-09-19T11:49:32;94845.91;;;30.68;36.44
11099;BME280;12223;42.650;23.364;2023-09-19T11:52:01;94834.38;;;30.87;36.21
11099;BME280;12223;42.650;23.364;2023-09-19T11:54:31;94835.69;;;30.77;36.03
11099;BME280;12223;42.650;23.364;2023-09-19T11:56:58;94833.53;;;30.70;36.48
11099;BME280;12223;42.650;23.364;2023-09-19T11:59:27;94832.13;;;30.89;36.07
11099;BME280;12223;42.650;23.364;2023-09-19T12:01:56;94834.88;;;31.17;35.46
11099;BME280;12223;42.650;23.364;2023-09-19T12:04:37;94843.91;;;31.33;35.04
11099;BME280;12223;42.650;23.364;2023-09-19T12:07:08;94835.75;;;31.48;34.78
11099;BME280;12223;42.650;23.364;2023-09-19T12:09:41;94842.09;;;31.52;35.04
11099;BME280;12223;42.650;23.364;2023-09-19T12:12:10;94829.66;;;31.11;36.28
11099;BME280;12223;42.650;23.364;2023-09-19T12:14:38;94835.03;;;30.56;35.96
11099;BME280;12223;42.650;23.364;2023-09-19T12:17:09;94817.25;;;30.22;36.41
11099;BME280;12223;42.650;23.364;2023-09-19T12:19:37;94809.50;;;30.36;36.35
11099;BME280;12223;42.650;23.364;2023-09-19T12:22:04;94808.97;;;30.18;37.12
11099;BME280;12223;42.650;23.364;2023-09-19T12:24:31;94817.34;;;30.37;36.64
11099;BME280;12223;42.650;23.364;2023-09-19T12:27:03;94807.91;;;30.47;36.58
11099;BME280;12223;42.650;23.364;2023-09-19T12:29:42;94806.84;;;30.64;36.35
11099;BME280;12223;42.650;23.364;2023-09-19T12:32:12;94809.09;;;30.10;36.94
11099;BME280;12223;42.650;23.364;2023-09-19T12:34:42;94801.66;;;29.62;38.08
11099;BME280;12223;42.650;23.364;2023-09-19T12:37:18;94800.53;;;28.64;39.63
11099;BME280;12223;42.650;23.364;2023-09-19T12:39:48;94792.22;;;28.39;40.53
11099;BME280;12223;42.650;23.364;2023-09-19T12:42:17;94788.41;;;28.11;41.21
11099;BME280;12223;42.650;23.364;2023-09-19T12:44:46;94787.44;;;28.16;41.23
11099;BME280;12223;42.650;23.364;2023-09-19T12:47:16;94782.28;;;28.64;40.52
11099;BME280;12223;42.650;23.364;2023-09-19T12:50:07;94784.66;;;29.07;39.89
11099;BME280;12223;42.650;23.364;2023-09-19T12:52:39;94776.44;;;29.40;39.56
11099;BME280;12223;42.650;23.364;2023-09-19T12:55:06;94790.13;;;29.19;39.34
11099;BME280;12223;42.650;23.364;2023-09-19T12:57:36;94780.22;;;29.48;39.28
11099;BME280;12223;42.650;23.364;2023-09-19T13:00:06;94783.66;;;29.81;38.46
11099;BME280;12223;42.650;23.364;2023-09-19T13:02:37;94786.50;;;30.09;37.76
11099;BME280;12223;42.650;23.364;2023-09-19T13:05:51;94781.25;;;30.28;37.65
11099;BME280;12223;42.650;23.364;2023-09-19T13:08:25;94773.09;;;30.68;37.07
11099;BME280;12223;42.650;23.364;2023-09-19T13:11:03;94771.78;;;30.90;36.11
11099;BME280;12223;42.650;23.364;2023-09-19T13:13:32;94762.06;;;31.05;36.14
11099;BME280;12223;42.650;23.364;2023-09-19T13:16:00;94763.69;;;31.22;35.79
11099;BME280;12223;42.650;23.364;2023-09-19T13:18:30;94758.03;;;29.94;37.46
11099;BME280;12223;42.650;23.364;2023-09-19T13:21:08;94764.63;;;28.91;39.53
11099;BME280;12223;42.650;23.364;2023-09-19T13:23:37;94764.34;;;29.38;38.89
11099;BME280;12223;42.650;23.364;2023-09-19T13:26:05;94758.91;;;29.38;38.86
11099;BME280;12223;42.650;23.364;2023-09-19T13:28:33;94753.94;;;29.64;38.78
11099;BME280;12223;42.650;23.364;2023-09-19T13:31:00;94744.97;;;29.88;38.57
11099;BME280;12223;42.650;23.364;2023-09-19T13:33:28;94747.03;;;30.03;38.74
11099;BME280;12223;42.650;23.364;2023-09-19T13:39:17;94737.03;;;30.47;37.45
11099;BME280;12223;42.650;23.364;2023-09-19T13:41:44;94737.84;;;30.75;37.00
11099;BME280;12223;42.650;23.364;2023-09-19T13:44:12;94739.75;;;30.59;36.87
11099;BME280;12223;42.650;23.364;2023-09-19T13:46:39;94732.06;;;30.77;36.89
11099;BME280;12223;42.650;23.364;2023-09-19T13:52:33;94743.09;;;30.96;36.25
11099;BME280;12223;42.650;23.364;2023-09-19T13:55:00;94742.63;;;31.06;36.48
11099;BME280;12223;42.650;23.364;2023-09-19T13:57:27;94739.31;;;31.29;35.77
11099;BME280;12223;42.650;23.364;2023-09-19T13:59:54;94729.00;;;31.22;35.86
11099;BME280;12223;42.650;23.364;2023-09-19T14:02:22;94729.72;;;30.63;36.69
11099;BME280;12223;42.650;23.364;2023-09-19T14:04:49;94733.78;;;30.69;36.65
11099;BME280;12223;42.650;23.364;2023-09-19T14:07:16;94730.25;;;30.41;36.99
11099;BME280;12223;42.650;23.364;2023-09-19T14:09:46;94723.75;;;30.46;37.01
11099;BME280;12223;42.650;23.364;2023-09-19T14:12:14;94729.97;;;30.86;36.55
11099;BME280;12223;42.650;23.364;2023-09-19T14:14:41;94736.38;;;31.06;36.29
11099;BME280;12223;42.650;23.364;2023-09-19T14:17:08;94737.38;;;30.86;36.37
11099;BME280;12223;42.650;23.364;2023-09-19T14:19:34;94741.19;;;30.69;36.43
11099;BME280;12223;42.650;23.364;2023-09-19T14:22:02;94734.69;;;30.33;36.98
11099;BME280;12223;42.650;23.364;2023-09-19T14:24:33;94738.31;;;30.37;36.95
11099;BME280;12223;42.650;23.364;2023-09-19T14:27:01;94731.63;;;30.35;36.97